Terminal Aerodrome Forecast
Issued by NWS

Home | Current Version | Previous Version | Text Only | Print | Product List | Glossary On
Versions: 1 2 3 4 5 6 7 8 9 10 11 12 13 14 15 16 17 18 19 20 21
000
FTUS45 KABQ 211100
TAFLVS
TAF
KLVS 211140Z 2112/2212 VRB05KT P6SM SCT025 SCT060
     FM211600 07010KT P6SM BKN040
     FM211900 10012KT P6SM VCSH BKN050
      TEMPO 2122/2202 4SM -TSRA OVC030CB
     FM220400 12008KT P6SM BKN025=

USA.gov is the U.S. government's official web portal to all federal, state and local government web resources and services.